KMKE/MKE METAR and TAF weather

Enter ICAO airport designator
Station Type Date Time Source
KMKE METAR 2019/04/23 04:14 UTC NOAA

KMKE 230414Z 02017G31KT 1 1/2SM R01L/5000VP6000FT +TSRA BR SCT041 SCT049CB OVC055 09/07 A2983 RMK AO2 PK WND 02031/0405 LTG DSNT S-NW RAB0356 OCNL LTGCGICCC OHD TS OHD MOV NE P0012 T00890072 $


Station Type Date Time Source
KMKE Decoded METAR 2019/04/23 04:14 UTC NOAA

GEN MITCHELL INTERNATIONAL AIRPORT, WI, United States (KMKE) 42-57N 87-54W 206M
Apr 23, 2019 - 12:14 AM EDT / 2019.04.23 0414 UTC
Wind: from the NNE (020 degrees) at 20 MPH (17 KT) gusting to 36 MPH (31 KT):0
Visibility: 1 1/2 mile(s):0
Sky conditions: overcast
Weather: heavy rain with thunder; mist; Cumulonimbus clouds, lightning observed
Precipitation last hour: 0.12 inches
Temperature: 48.0 F (8.9 C)
Dew Point: 45.0 F (7.2 C)
Relative Humidity: 89%
Pressure (altimeter): 29.83 in. Hg (1010 hPa)
ob: KMKE 230414Z 02017G31KT 1 1/2SM R01L/5000VP6000FT +TSRA BR SCT041 SCT049CB OVC055 09/07 A2983 RMK AO2 PK WND 02031/0405 LTG DSNT S-NW RAB0356 OCNL LTGCGICCC OHD TS OHD MOV NE P0012 T00890072
cycle: 4

Station Type Date Time Source
KMKE TAF 2019/04/23 04:04 UTC NOAA

TAF
AMD KMKE 230402Z 2304/2406 02015G25KT 6SM -SHRA VCTS SCT035CB OVC080
TEMPO 2304/2305 36010G20KT 4SM -TSRA BKN035CB
FM230500 21013KT P6SM SHRA VCTS OVC035CB
FM230700 24012KT P6SM VCSH OVC010
FM231200 32012G20KT P6SM OVC013
FM231600 34013KT P6SM BKN045

Example: see airport list